Aransas Pass — WDF5061 — position and weather

sailwx.info

Track history (hours):
 
Tides and Currents Weather Stations Pressure Air Temp Water Temp Dewpoint Dewpoint Depression Visibility Wind Speed Wind Dir Waves Ship Positions

Aransas Pass

Owner: Higman Barge Lines, Inc., Orange, TX. More information available from US FCC via Universal Licensing System and Coast Guard Vessel Documentation Center.

Last reported at 2015-Apr-20 04:33 UTC. Time now 2015-Apr-21 14:38 UTC.
Position N 29°24' W 094°46'.

Length 26 m; draft 3 m.

Type: Towing. MMSI: 367458930.

Date/timePositionNaut miles runAvg speedWind from/ knotsBaromVisibWave heightAir tempDewpointWater temp
2015-Apr-20 04:33N 29°24' W 094°46'6 5.2
2015-Apr-20 03:20N 29°28' W 094°51'7 9.0
2015-Apr-20 02:33N 29°34' W 094°55'9 8.8
2015-Apr-20 01:33N 29°42' W 094°60'6 6.2
2015-Apr-20 00:32N 29°45' W 095°06'0 0.4
2015-Apr-19 23:33N 29°45' W 095°06'0 0.0
2015-Apr-19 22:33N 29°45' W 095°06'0 0.0
2015-Apr-19 21:33N 29°45' W 095°06'0 0.0
2015-Apr-19 19:33N 29°45' W 095°06'0 0.0
2015-Apr-19 18:33N 29°45' W 095°06'0 0.0
2015-Apr-19 17:33N 29°45' W 095°06'0 0.0
2015-Apr-19 16:33N 29°45' W 095°06'0 0.0
2015-Apr-19 15:33N 29°45' W 095°06'0 0.0
2015-Apr-19 14:33N 29°45' W 095°06'0 0.0
2015-Apr-19 13:33N 29°45' W 095°06'0 0.0
2015-Apr-19 12:32N 29°45' W 095°06'0 0.0
2015-Apr-19 11:24N 29°45' W 095°06'0 0.0
2015-Apr-19 10:31N 29°45' W 095°06'0 0.0
2015-Apr-19 09:33N 29°45' W 095°06'0 0.0
2015-Apr-19 08:33N 29°45' W 095°06'0 0.0
2015-Apr-19 07:33N 29°45' W 095°06'0 0.0
2015-Apr-19 06:33N 29°45' W 095°06'0 0.0
2015-Apr-19 05:33N 29°45' W 095°06'0 0.0
2015-Apr-19 04:33N 29°45' W 095°06'0 0.0
2015-Apr-19 03:33N 29°45' W 095°06'0 0.0
2015-Apr-19 02:33N 29°45' W 095°06'0 0.0
2015-Apr-19 01:30N 29°45' W 095°06'0 0.0
2015-Apr-19 00:31N 29°45' W 095°06'0 0.0
2015-Apr-18 23:32N 29°45' W 095°06'0 0.0
2015-Apr-18 22:33N 29°45' W 095°06'0 0.0
2015-Apr-18 21:33N 29°45' W 095°06'0 0.0
2015-Apr-18 20:33N 29°45' W 095°06'0 0.0
2015-Apr-18 19:32N 29°45' W 095°06'0 0.0
2015-Apr-18 18:33N 29°45' W 095°06'1 0.9
2015-Apr-18 17:33N 29°44' W 095°07'1 1.2
2015-Apr-18 16:33N 29°44' W 095°08'0 0.0
2015-Apr-18 15:33N 29°44' W 095°08'0 0.0
2015-Apr-18 14:33N 29°44' W 095°08'0 0.0
2015-Apr-18 13:33N 29°44' W 095°08'0 0.0
2015-Apr-18 12:33N 29°44' W 095°08'0 0.0
2015-Apr-18 11:33N 29°44' W 095°08'0 0.0
2015-Apr-18 10:33N 29°44' W 095°08'0 0.0
2015-Apr-18 09:33N 29°44' W 095°08'0 0.0
2015-Apr-18 08:33N 29°44' W 095°08'0 0.0
2015-Apr-18 07:32N 29°44' W 095°08'0 0.0
2015-Apr-18 06:33N 29°44' W 095°08'0 0.0
2015-Apr-18 05:33N 29°44' W 095°08'0 0.0
2015-Apr-18 04:33N 29°44' W 095°08'2 1.5
2015-Apr-18 03:33N 29°45' W 095°07'0 0.0
2015-Apr-18 02:33N 29°45' W 095°07'0 0.0
2015-Apr-18 01:33N 29°45' W 095°07'0 0.0
2015-Apr-18 00:31N 29°45' W 095°07'0 0.0
2015-Apr-17 23:32N 29°45' W 095°07'2 1.9
2015-Apr-17 22:33N 29°44' W 095°09'4 4.4
2015-Apr-17 21:33N 29°44' W 095°14'0 0.4
2015-Apr-17 20:33N 29°43' W 095°14'0 0.1
2015-Apr-17 19:33N 29°43' W 095°14'0 0.0
2015-Apr-17 18:33N 29°43' W 095°14'0 0.0
2015-Apr-17 17:33N 29°43' W 095°14'0 0.0
2015-Apr-17 16:33N 29°43' W 095°14'0 0.0
2015-Apr-17 15:33N 29°43' W 095°14'0 0.0
2015-Apr-17 14:33N 29°43' W 095°14'0 0.0
2015-Apr-17 13:33N 29°43' W 095°14'0 0.0
2015-Apr-16 13:20N 29°43' W 095°14'0 0.0
2015-Apr-16 12:19N 29°43' W 095°14'0 0.0
2015-Apr-16 11:28N 29°43' W 095°14'0 0.0
2015-Apr-16 10:14N 29°43' W 095°14'0 0.0
2015-Apr-16 07:04N 29°43' W 095°14'6 0.4
2015-Apr-15 16:09N 29°44' W 095°08'0 0.0
2015-Apr-15 13:30N 29°44' W 095°08'0 0.0
2015-Apr-15 10:29N 29°44' W 095°08'0 0.0
2015-Apr-15 01:30N 29°44' W 095°08'1 0.3
2015-Apr-14 22:28N 29°44' W 095°07'2 2.2
2015-Apr-14 21:31N 29°46' W 095°05'1 1.0
2015-Apr-14 20:32N 29°46' W 095°06'1 0.9
2015-Apr-14 19:33N 29°46' W 095°05'2 1.2
2015-Apr-14 18:19N 29°45' W 095°07'0 0.0
2015-Apr-14 17:33N 29°45' W 095°07'0 0.0
2015-Apr-14 16:16N 29°45' W 095°07'0 0.0
2015-Apr-14 15:32N 29°45' W 095°07'2 1.7
2015-Apr-14 14:33N 29°46' W 095°05'0 0.0
2015-Apr-14 13:33N 29°46' W 095°05'0 0.0
2015-Apr-14 12:33N 29°46' W 095°05'0 0.0
2015-Apr-14 11:33N 29°46' W 095°05'0 0.0
2015-Apr-14 10:32N 29°46' W 095°05'0 0.0
2015-Apr-14 09:33N 29°46' W 095°05'0 0.0
2015-Apr-14 08:33N 29°46' W 095°05'0 0.0
2015-Apr-14 07:33N 29°46' W 095°05'0 0.0
2015-Apr-14 06:31N 29°46' W 095°05'0 0.0
2015-Apr-14 05:33N 29°46' W 095°05'0 0.0
2015-Apr-14 04:33N 29°46' W 095°05'0 0.0
2015-Apr-14 03:33N 29°46' W 095°05'0 0.0
2015-Apr-14 02:31N 29°46' W 095°05'0 0.0
2015-Apr-14 01:26N 29°46' W 095°05'0 0.0
2015-Apr-14 00:32N 29°46' W 095°05'1 0.2
2015-Apr-13 21:08N 29°46' W 095°06'0 0.3
2015-Apr-13 20:16N 29°45' W 095°06'1 0.3
2015-Apr-13 18:33N 29°46' W 095°05'0 0.1
2015-Apr-13 17:33N 29°46' W 095°05'4 2.7
2015-Apr-13 16:15N 29°44' W 095°09'4 4.1
2015-Apr-13 15:14N 29°44' W 095°14'1 0.0
2015-Apr-12 05:33N 29°43' W 095°14'0 0.0
2015-Apr-12 04:33N 29°43' W 095°14'0 0.0
2015-Apr-12 03:33N 29°43' W 095°14'0 0.0
2015-Apr-12 02:33N 29°43' W 095°14'0 0.0
2015-Apr-12 01:33N 29°43' W 095°14'0 0.0
2015-Apr-12 00:33N 29°43' W 095°14'0 0.0
2015-Apr-11 23:33N 29°43' W 095°14'0 0.0
2015-Apr-11 22:33N 29°43' W 095°14'0 0.0
2015-Apr-11 21:33N 29°43' W 095°14'1 1.3
2015-Apr-11 20:33N 29°44' W 095°13'5 4.8
2015-Apr-11 19:33N 29°44' W 095°07'3 3.2
2015-Apr-11 18:32N 29°47' W 095°05'2 1.8
2015-Apr-11 17:33N 29°46' W 095°07'2 1.9
2015-Apr-11 16:33N 29°47' W 095°05'0 0.0
2015-Apr-11 15:32N 29°47' W 095°05'0 0.0
2015-Apr-11 13:18N 29°47' W 095°05'0 0.1
2015-Apr-11 12:33N 29°47' W 095°05'0 0.0
2015-Apr-11 11:33N 29°47' W 095°05'0 0.0
2015-Apr-11 10:33N 29°47' W 095°05'0 0.0
2015-Apr-11 09:33N 29°47' W 095°05'0 0.0
2015-Apr-11 08:33N 29°47' W 095°05'0 0.0
2015-Apr-11 07:33N 29°47' W 095°05'0 0.0
2015-Apr-11 06:33N 29°47' W 095°05'0 0.0
2015-Apr-11 05:33N 29°47' W 095°05'0 0.0
2015-Apr-11 04:33N 29°47' W 095°05'0 0.0
2015-Apr-11 03:33N 29°47' W 095°05'0 0.0
2015-Apr-11 02:33N 29°47' W 095°05'0 0.0
2015-Apr-11 01:33N 29°47' W 095°05'0 0.0
2015-Apr-11 00:34N 29°47' W 095°05'0 0.0
2015-Apr-10 23:33N 29°47' W 095°05'0 0.0
2015-Apr-10 22:33N 29°47' W 095°05'0 0.0
2015-Apr-10 21:32N 29°47' W 095°05'0 0.0
2015-Apr-10 20:33N 29°47' W 095°05'0 0.0
2015-Apr-10 19:32N 29°47' W 095°05'0 0.0
2015-Apr-10 18:33N 29°47' W 095°05'0 0.0
2015-Apr-10 17:33N 29°47' W 095°05'0 0.0
2015-Apr-10 16:32N 29°47' W 095°05'0 0.0
2015-Apr-10 15:33N 29°47' W 095°05'0 0.1
2015-Apr-10 14:33N 29°47' W 095°05'1 1.4
2015-Apr-10 13:33N 29°46' W 095°06'0 0.0
2015-Apr-10 07:31N 29°46' W 095°06'3 2.7
2015-Apr-10 06:31N 29°44' W 095°04'6 6.6
2015-Apr-10 05:33N 29°40' W 094°58'  
Track history (hours):
 
Tides and Currents Weather Stations Pressure Air Temp Water Temp Dewpoint Dewpoint Depression Visibility Wind Speed Wind Dir Waves Ship Positions

Aransas Pass

Owner: Higman Barge Lines, Inc., Orange, TX. More information available from US FCC via Universal Licensing System and Coast Guard Vessel Documentation Center.

Last reported at 2015-Apr-20 04:33 UTC. Time now 2015-Apr-21 14:38 UTC.
Position N 29°24' W 094°46'.

Length 26 m; draft 3 m.

Type: Towing. MMSI: 367458930.

Date/timePositionNaut miles runAvg speedWind from/ knotsBaromVisibWave heightAir tempDewpointWater temp
2015-Apr-20 04:33N 29°24' W 094°46'6 5.2
2015-Apr-20 03:20N 29°28' W 094°51'7 9.0
2015-Apr-20 02:33N 29°34' W 094°55'9 8.8
2015-Apr-20 01:33N 29°42' W 094°60'6 6.2
2015-Apr-20 00:32N 29°45' W 095°06'0 0.4
2015-Apr-19 23:33N 29°45' W 095°06'0 0.0
2015-Apr-19 22:33N 29°45' W 095°06'0 0.0
2015-Apr-19 21:33N 29°45' W 095°06'0 0.0
2015-Apr-19 19:33N 29°45' W 095°06'0 0.0
2015-Apr-19 18:33N 29°45' W 095°06'0 0.0
2015-Apr-19 17:33N 29°45' W 095°06'0 0.0
2015-Apr-19 16:33N 29°45' W 095°06'0 0.0
2015-Apr-19 15:33N 29°45' W 095°06'0 0.0
2015-Apr-19 14:33N 29°45' W 095°06'0 0.0
2015-Apr-19 13:33N 29°45' W 095°06'0 0.0
2015-Apr-19 12:32N 29°45' W 095°06'0 0.0
2015-Apr-19 11:24N 29°45' W 095°06'0 0.0
2015-Apr-19 10:31N 29°45' W 095°06'0 0.0
2015-Apr-19 09:33N 29°45' W 095°06'0 0.0
2015-Apr-19 08:33N 29°45' W 095°06'0 0.0
2015-Apr-19 07:33N 29°45' W 095°06'0 0.0
2015-Apr-19 06:33N 29°45' W 095°06'0 0.0
2015-Apr-19 05:33N 29°45' W 095°06'0 0.0
2015-Apr-19 04:33N 29°45' W 095°06'0 0.0
2015-Apr-19 03:33N 29°45' W 095°06'0 0.0
2015-Apr-19 02:33N 29°45' W 095°06'0 0.0
2015-Apr-19 01:30N 29°45' W 095°06'0 0.0
2015-Apr-19 00:31N 29°45' W 095°06'0 0.0
2015-Apr-18 23:32N 29°45' W 095°06'0 0.0
2015-Apr-18 22:33N 29°45' W 095°06'0 0.0
2015-Apr-18 21:33N 29°45' W 095°06'0 0.0
2015-Apr-18 20:33N 29°45' W 095°06'0 0.0
2015-Apr-18 19:32N 29°45' W 095°06'0 0.0
2015-Apr-18 18:33N 29°45' W 095°06'1 0.9
2015-Apr-18 17:33N 29°44' W 095°07'1 1.2
2015-Apr-18 16:33N 29°44' W 095°08'0 0.0
2015-Apr-18 15:33N 29°44' W 095°08'0 0.0
2015-Apr-18 14:33N 29°44' W 095°08'0 0.0
2015-Apr-18 13:33N 29°44' W 095°08'0 0.0
2015-Apr-18 12:33N 29°44' W 095°08'0 0.0
2015-Apr-18 11:33N 29°44' W 095°08'0 0.0
2015-Apr-18 10:33N 29°44' W 095°08'0 0.0
2015-Apr-18 09:33N 29°44' W 095°08'0 0.0
2015-Apr-18 08:33N 29°44' W 095°08'0 0.0
2015-Apr-18 07:32N 29°44' W 095°08'0 0.0
2015-Apr-18 06:33N 29°44' W 095°08'0 0.0
2015-Apr-18 05:33N 29°44' W 095°08'0 0.0
2015-Apr-18 04:33N 29°44' W 095°08'2 1.5
2015-Apr-18 03:33N 29°45' W 095°07'0 0.0
2015-Apr-18 02:33N 29°45' W 095°07'0 0.0
2015-Apr-18 01:33N 29°45' W 095°07'0 0.0
2015-Apr-18 00:31N 29°45' W 095°07'0 0.0
2015-Apr-17 23:32N 29°45' W 095°07'2 1.9
2015-Apr-17 22:33N 29°44' W 095°09'4 4.4
2015-Apr-17 21:33N 29°44' W 095°14'0 0.4
2015-Apr-17 20:33N 29°43' W 095°14'0 0.1
2015-Apr-17 19:33N 29°43' W 095°14'0 0.0
2015-Apr-17 18:33N 29°43' W 095°14'0 0.0
2015-Apr-17 17:33N 29°43' W 095°14'0 0.0
2015-Apr-17 16:33N 29°43' W 095°14'0 0.0
2015-Apr-17 15:33N 29°43' W 095°14'0 0.0
2015-Apr-17 14:33N 29°43' W 095°14'0 0.0
2015-Apr-17 13:33N 29°43' W 095°14'0 0.0
2015-Apr-16 13:20N 29°43' W 095°14'0 0.0
2015-Apr-16 12:19N 29°43' W 095°14'0 0.0
2015-Apr-16 11:28N 29°43' W 095°14'0 0.0
2015-Apr-16 10:14N 29°43' W 095°14'0 0.0
2015-Apr-16 07:04N 29°43' W 095°14'6 0.4
2015-Apr-15 16:09N 29°44' W 095°08'0 0.0
2015-Apr-15 13:30N 29°44' W 095°08'0 0.0
2015-Apr-15 10:29N 29°44' W 095°08'0 0.0
2015-Apr-15 01:30N 29°44' W 095°08'1 0.3
2015-Apr-14 22:28N 29°44' W 095°07'2 2.2
2015-Apr-14 21:31N 29°46' W 095°05'1 1.0
2015-Apr-14 20:32N 29°46' W 095°06'1 0.9
2015-Apr-14 19:33N 29°46' W 095°05'2 1.2
2015-Apr-14 18:19N 29°45' W 095°07'0 0.0
2015-Apr-14 17:33N 29°45' W 095°07'0 0.0
2015-Apr-14 16:16N 29°45' W 095°07'0 0.0
2015-Apr-14 15:32N 29°45' W 095°07'2 1.7
2015-Apr-14 14:33N 29°46' W 095°05'0 0.0
2015-Apr-14 13:33N 29°46' W 095°05'0 0.0
2015-Apr-14 12:33N 29°46' W 095°05'0 0.0
2015-Apr-14 11:33N 29°46' W 095°05'0 0.0
2015-Apr-14 10:32N 29°46' W 095°05'0 0.0
2015-Apr-14 09:33N 29°46' W 095°05'0 0.0
2015-Apr-14 08:33N 29°46' W 095°05'0 0.0
2015-Apr-14 07:33N 29°46' W 095°05'0 0.0
2015-Apr-14 06:31N 29°46' W 095°05'0 0.0
2015-Apr-14 05:33N 29°46' W 095°05'0 0.0
2015-Apr-14 04:33N 29°46' W 095°05'0 0.0
2015-Apr-14 03:33N 29°46' W 095°05'0 0.0
2015-Apr-14 02:31N 29°46' W 095°05'0 0.0
2015-Apr-14 01:26N 29°46' W 095°05'0 0.0
2015-Apr-14 00:32N 29°46' W 095°05'1 0.2
2015-Apr-13 21:08N 29°46' W 095°06'0 0.3
2015-Apr-13 20:16N 29°45' W 095°06'1 0.3
2015-Apr-13 18:33N 29°46' W 095°05'0 0.1
2015-Apr-13 17:33N 29°46' W 095°05'4 2.7
2015-Apr-13 16:15N 29°44' W 095°09'4 4.1
2015-Apr-13 15:14N 29°44' W 095°14'1 0.0
2015-Apr-12 05:33N 29°43' W 095°14'0 0.0
2015-Apr-12 04:33N 29°43' W 095°14'0 0.0
2015-Apr-12 03:33N 29°43' W 095°14'0 0.0
2015-Apr-12 02:33N 29°43' W 095°14'0 0.0
2015-Apr-12 01:33N 29°43' W 095°14'0 0.0
2015-Apr-12 00:33N 29°43' W 095°14'0 0.0
2015-Apr-11 23:33N 29°43' W 095°14'0 0.0
2015-Apr-11 22:33N 29°43' W 095°14'0 0.0
2015-Apr-11 21:33N 29°43' W 095°14'1 1.3
2015-Apr-11 20:33N 29°44' W 095°13'5 4.8
2015-Apr-11 19:33N 29°44' W 095°07'3 3.2
2015-Apr-11 18:32N 29°47' W 095°05'2 1.8
2015-Apr-11 17:33N 29°46' W 095°07'2 1.9
2015-Apr-11 16:33N 29°47' W 095°05'0 0.0
2015-Apr-11 15:32N 29°47' W 095°05'0 0.0
2015-Apr-11 13:18N 29°47' W 095°05'0 0.1
2015-Apr-11 12:33N 29°47' W 095°05'0 0.0
2015-Apr-11 11:33N 29°47' W 095°05'0 0.0
2015-Apr-11 10:33N 29°47' W 095°05'0 0.0
2015-Apr-11 09:33N 29°47' W 095°05'0 0.0
2015-Apr-11 08:33N 29°47' W 095°05'0 0.0
2015-Apr-11 07:33N 29°47' W 095°05'0 0.0
2015-Apr-11 06:33N 29°47' W 095°05'0 0.0
2015-Apr-11 05:33N 29°47' W 095°05'0 0.0
2015-Apr-11 04:33N 29°47' W 095°05'0 0.0
2015-Apr-11 03:33N 29°47' W 095°05'0 0.0
2015-Apr-11 02:33N 29°47' W 095°05'0 0.0
2015-Apr-11 01:33N 29°47' W 095°05'0 0.0
2015-Apr-11 00:34N 29°47' W 095°05'0 0.0
2015-Apr-10 23:33N 29°47' W 095°05'0 0.0
2015-Apr-10 22:33N 29°47' W 095°05'0 0.0
2015-Apr-10 21:32N 29°47' W 095°05'0 0.0
2015-Apr-10 20:33N 29°47' W 095°05'0 0.0
2015-Apr-10 19:32N 29°47' W 095°05'0 0.0
2015-Apr-10 18:33N 29°47' W 095°05'0 0.0
2015-Apr-10 17:33N 29°47' W 095°05'0 0.0
2015-Apr-10 16:32N 29°47' W 095°05'0 0.0
2015-Apr-10 15:33N 29°47' W 095°05'0 0.1
2015-Apr-10 14:33N 29°47' W 095°05'1 1.4
2015-Apr-10 13:33N 29°46' W 095°06'0 0.0
2015-Apr-10 07:31N 29°46' W 095°06'3 2.7
2015-Apr-10 06:31N 29°44' W 095°04'6 6.6
2015-Apr-10 05:33N 29°40' W 094°58'  

Dump ship's entire track history